sensor_id;sensor_type;location;lat;lon;timestamp;temperature;humidity
25825;DHT22;13658;44.534;18.694;2023-07-22T00:01:09;19.00;99.90
25825;DHT22;13658;44.534;18.694;2023-07-22T00:03:35;19.10;99.90
25825;DHT22;13658;44.534;18.694;2023-07-22T00:06:09;19.10;99.90
25825;DHT22;13658;44.534;18.694;2023-07-22T00:08:37;19.10;99.90
25825;DHT22;13658;44.534;18.694;2023-07-22T00:11:05;19.20;99.90
25825;DHT22;13658;44.534;18.694;2023-07-22T00:13:32;19.20;99.90
25825;DHT22;13658;44.534;18.694;2023-07-22T00:15:58;19.40;99.90
25825;DHT22;13658;44.534;18.694;2023-07-22T00:18:30;19.40;99.90
25825;DHT22;13658;44.534;18.694;2023-07-22T00:20:56;19.50;99.90
25825;DHT22;13658;44.534;18.694;2023-07-22T00:23:26;19.50;99.90
25825;DHT22;13658;44.534;18.694;2023-07-22T00:25:52;19.50;99.90
25825;DHT22;13658;44.534;18.694;2023-07-22T00:28:21;19.50;99.90
25825;DHT22;13658;44.534;18.694;2023-07-22T00:30:47;19.50;99.90
25825;DHT22;13658;44.534;18.694;2023-07-22T00:33:15;19.50;99.90
25825;DHT22;13658;44.534;18.694;2023-07-22T00:35:41;19.50;99.90
25825;DHT22;13658;44.534;18.694;2023-07-22T00:38:07;19.50;99.90
25825;DHT22;13658;44.534;18.694;2023-07-22T00:40:33;19.50;99.90
25825;DHT22;13658;44.534;18.694;2023-07-22T00:42:59;19.50;99.90
25825;DHT22;13658;44.534;18.694;2023-07-22T00:45:29;19.40;99.90
25825;DHT22;13658;44.534;18.694;2023-07-22T00:47:55;19.30;99.90
25825;DHT22;13658;44.534;18.694;2023-07-22T00:50:21;19.30;99.90
25825;DHT22;13658;44.534;18.694;2023-07-22T00:52:48;19.30;99.90
25825;DHT22;13658;44.534;18.694;2023-07-22T00:55:14;19.30;99.90
25825;DHT22;13658;44.534;18.694;2023-07-22T00:57:40;19.40;99.90
25825;DHT22;13658;44.534;18.694;2023-07-22T01:03:14;19.40;99.90
25825;DHT22;13658;44.534;18.694;2023-07-22T01:05:40;19.30;99.90
25825;DHT22;13658;44.534;18.694;2023-07-22T01:08:07;19.20;99.90
25825;DHT22;13658;44.534;18.694;2023-07-22T01:10:33;19.30;99.90
25825;DHT22;13658;44.534;18.694;2023-07-22T01:12:59;19.30;99.90
25825;DHT22;13658;44.534;18.694;2023-07-22T01:15:25;19.30;99.90
25825;DHT22;13658;44.534;18.694;2023-07-22T01:17:52;19.30;99.90
25825;DHT22;13658;44.534;18.694;2023-07-22T01:20:19;19.30;99.90
25825;DHT22;13658;44.534;18.694;2023-07-22T01:22:52;19.30;99.90
25825;DHT22;13658;44.534;18.694;2023-07-22T01:25:22;19.30;99.90
25825;DHT22;13658;44.534;18.694;2023-07-22T01:27:51;19.30;99.90
25825;DHT22;13658;44.534;18.694;2023-07-22T01:30:18;19.30;99.90
25825;DHT22;13658;44.534;18.694;2023-07-22T01:32:46;19.30;99.90
25825;DHT22;13658;44.534;18.694;2023-07-22T01:35:12;19.30;99.90
25825;DHT22;13658;44.534;18.694;2023-07-22T01:37:38;19.30;99.90
25825;DHT22;13658;44.534;18.694;2023-07-22T01:40:07;19.30;99.90
25825;DHT22;13658;44.534;18.694;2023-07-22T01:42:39;19.30;99.90
25825;DHT22;13658;44.534;18.694;2023-07-22T01:45:07;19.30;99.90
25825;DHT22;13658;44.534;18.694;2023-07-22T01:47:37;19.40;99.90
25825;DHT22;13658;44.534;18.694;2023-07-22T01:50:04;19.40;99.90
25825;DHT22;13658;44.534;18.694;2023-07-22T01:52:32;19.50;99.90
25825;DHT22;13658;44.534;18.694;2023-07-22T01:54:58;19.50;99.90
25825;DHT22;13658;44.534;18.694;2023-07-22T01:57:24;19.50;99.90
25825;DHT22;13658;44.534;18.694;2023-07-22T01:59:50;19.50;99.90
25825;DHT22;13658;44.534;18.694;2023-07-22T02:02:16;19.50;99.90
25825;DHT22;13658;44.534;18.694;2023-07-22T02:04:42;19.60;99.90
25825;DHT22;13658;44.534;18.694;2023-07-22T02:07:08;19.40;99.90
25825;DHT22;13658;44.534;18.694;2023-07-22T02:09:34;19.50;99.90
25825;DHT22;13658;44.534;18.694;2023-07-22T02:12:01;19.50;99.90
25825;DHT22;13658;44.534;18.694;2023-07-22T02:14:27;19.50;99.90
25825;DHT22;13658;44.534;18.694;2023-07-22T02:16:53;19.40;99.90
25825;DHT22;13658;44.534;18.694;2023-07-22T02:19:19;19.40;99.90
25825;DHT22;13658;44.534;18.694;2023-07-22T02:21:45;19.40;99.90
25825;DHT22;13658;44.534;18.694;2023-07-22T02:24:12;19.40;99.90
25825;DHT22;13658;44.534;18.694;2023-07-22T02:26:39;19.40;99.90
25825;DHT22;13658;44.534;18.694;2023-07-22T02:29:05;19.50;99.90
25825;DHT22;13658;44.534;18.694;2023-07-22T02:31:31;19.50;99.90
25825;DHT22;13658;44.534;18.694;2023-07-22T02:33:57;19.40;99.90
25825;DHT22;13658;44.534;18.694;2023-07-22T02:36:23;19.20;99.90
25825;DHT22;13658;44.534;18.694;2023-07-22T02:38:49;19.20;99.90
25825;DHT22;13658;44.534;18.694;2023-07-22T02:41:15;19.10;99.90
25825;DHT22;13658;44.534;18.694;2023-07-22T02:43:41;19.00;99.90
25825;DHT22;13658;44.534;18.694;2023-07-22T02:46:07;19.10;99.90
25825;DHT22;13658;44.534;18.694;2023-07-22T02:48:35;19.10;99.90
25825;DHT22;13658;44.534;18.694;2023-07-22T02:51:09;19.20;99.90
25825;DHT22;13658;44.534;18.694;2023-07-22T02:53:36;19.10;99.90
25825;DHT22;13658;44.534;18.694;2023-07-22T02:56:03;19.10;99.90
25825;DHT22;13658;44.534;18.694;2023-07-22T02:58:30;19.00;99.90
25825;DHT22;13658;44.534;18.694;2023-07-22T03:00:56;19.10;99.90
25825;DHT22;13658;44.534;18.694;2023-07-22T03:03:25;19.10;99.90
25825;DHT22;13658;44.534;18.694;2023-07-22T03:05:51;19.10;99.90
25825;DHT22;13658;44.534;18.694;2023-07-22T03:08:17;19.10;99.90
25825;DHT22;13658;44.534;18.694;2023-07-22T03:10:44;19.20;99.90
25825;DHT22;13658;44.534;18.694;2023-07-22T03:13:15;19.20;99.90
25825;DHT22;13658;44.534;18.694;2023-07-22T03:15:41;19.20;99.90
25825;DHT22;13658;44.534;18.694;2023-07-22T03:18:07;19.20;99.90
25825;DHT22;13658;44.534;18.694;2023-07-22T03:20:36;19.20;99.90
25825;DHT22;13658;44.534;18.694;2023-07-22T03:23:03;19.10;99.90
25825;DHT22;13658;44.534;18.694;2023-07-22T03:25:29;19.20;99.90
25825;DHT22;13658;44.534;18.694;2023-07-22T03:27:55;19.20;99.90
25825;DHT22;13658;44.534;18.694;2023-07-22T03:30:22;19.20;99.90
25825;DHT22;13658;44.534;18.694;2023-07-22T03:32:49;19.20;99.90
25825;DHT22;13658;44.534;18.694;2023-07-22T03:35:17;19.20;99.90
25825;DHT22;13658;44.534;18.694;2023-07-22T03:37:43;19.10;99.90
25825;DHT22;13658;44.534;18.694;2023-07-22T03:40:18;19.00;99.90
25825;DHT22;13658;44.534;18.694;2023-07-22T03:42:51;19.00;99.90
25825;DHT22;13658;44.534;18.694;2023-07-22T03:45:18;19.10;99.90
25825;DHT22;13658;44.534;18.694;2023-07-22T03:47:46;19.00;99.90
25825;DHT22;13658;44.534;18.694;2023-07-22T03:50:12;19.00;99.90
25825;DHT22;13658;44.534;18.694;2023-07-22T03:52:39;19.00;99.90
25825;DHT22;13658;44.534;18.694;2023-07-22T03:55:05;19.00;99.90
25825;DHT22;13658;44.534;18.694;2023-07-22T03:57:31;19.00;99.90
25825;DHT22;13658;44.534;18.694;2023-07-22T03:59:57;19.00;99.90
25825;DHT22;13658;44.534;18.694;2023-07-22T04:02:24;19.10;99.90
25825;DHT22;13658;44.534;18.694;2023-07-22T04:04:54;19.00;99.90
25825;DHT22;13658;44.534;18.694;2023-07-22T04:07:21;19.10;99.90
25825;DHT22;13658;44.534;18.694;2023-07-22T04:09:48;19.20;99.90
25825;DHT22;13658;44.534;18.694;2023-07-22T04:12:14;19.20;99.90
25825;DHT22;13658;44.534;18.694;2023-07-22T04:14:40;19.30;99.90
25825;DHT22;13658;44.534;18.694;2023-07-22T04:17:06;19.20;99.90
25825;DHT22;13658;44.534;18.694;2023-07-22T04:19:32;19.20;99.90
25825;DHT22;13658;44.534;18.694;2023-07-22T04:21:59;19.30;99.90
25825;DHT22;13658;44.534;18.694;2023-07-22T04:24:33;19.30;99.90
25825;DHT22;13658;44.534;18.694;2023-07-22T04:27:00;19.30;99.90
25825;DHT22;13658;44.534;18.694;2023-07-22T04:29:26;19.30;99.90
25825;DHT22;13658;44.534;18.694;2023-07-22T04:32:00;19.30;99.90
25825;DHT22;13658;44.534;18.694;2023-07-22T04:34:30;19.40;99.90
25825;DHT22;13658;44.534;18.694;2023-07-22T04:36:56;19.60;99.90
25825;DHT22;13658;44.534;18.694;2023-07-22T04:39:23;19.70;99.90
25825;DHT22;13658;44.534;18.694;2023-07-22T04:41:49;19.80;99.90
25825;DHT22;13658;44.534;18.694;2023-07-22T04:44:15;20.00;99.90
25825;DHT22;13658;44.534;18.694;2023-07-22T04:46:41;20.20;99.90
25825;DHT22;13658;44.534;18.694;2023-07-22T04:49:07;20.30;99.90
25825;DHT22;13658;44.534;18.694;2023-07-22T04:51:33;20.50;99.90
25825;DHT22;13658;44.534;18.694;2023-07-22T04:53:59;20.60;99.90
25825;DHT22;13658;44.534;18.694;2023-07-22T04:56:25;20.80;99.90
25825;DHT22;13658;44.534;18.694;2023-07-22T04:58:51;20.90;99.90
25825;DHT22;13658;44.534;18.694;2023-07-22T05:01:17;20.90;99.90
25825;DHT22;13658;44.534;18.694;2023-07-22T05:03:43;21.20;99.90
25825;DHT22;13658;44.534;18.694;2023-07-22T05:06:09;21.30;99.90
25825;DHT22;13658;44.534;18.694;2023-07-22T05:08:35;21.50;99.90
25825;DHT22;13658;44.534;18.694;2023-07-22T05:11:03;21.60;99.90
25825;DHT22;13658;44.534;18.694;2023-07-22T05:13:29;21.80;99.90
25825;DHT22;13658;44.534;18.694;2023-07-22T05:15:55;22.00;99.90
25825;DHT22;13658;44.534;18.694;2023-07-22T05:18:21;22.10;99.90
25825;DHT22;13658;44.534;18.694;2023-07-22T05:20:47;22.30;99.90
25825;DHT22;13658;44.534;18.694;2023-07-22T05:23:13;22.40;99.90
25825;DHT22;13658;44.534;18.694;2023-07-22T05:25:39;22.60;99.90
25825;DHT22;13658;44.534;18.694;2023-07-22T05:28:06;22.80;99.90
25825;DHT22;13658;44.534;18.694;2023-07-22T05:30:32;23.00;99.90
25825;DHT22;13658;44.534;18.694;2023-07-22T05:32:58;23.10;99.90
25825;DHT22;13658;44.534;18.694;2023-07-22T05:35:24;23.20;99.90
25825;DHT22;13658;44.534;18.694;2023-07-22T05:37:49;23.40;99.90
25825;DHT22;13658;44.534;18.694;2023-07-22T05:40:16;23.70;99.90
25825;DHT22;13658;44.534;18.694;2023-07-22T05:42:41;23.80;99.90
25825;DHT22;13658;44.534;18.694;2023-07-22T05:45:08;24.20;99.90
25825;DHT22;13658;44.534;18.694;2023-07-22T05:47:34;24.30;99.90
25825;DHT22;13658;44.534;18.694;2023-07-22T05:50:00;24.40;99.90
25825;DHT22;13658;44.534;18.694;2023-07-22T05:52:26;24.40;99.90
25825;DHT22;13658;44.534;18.694;2023-07-22T05:58:17;24.10;99.90
25825;DHT22;13658;44.534;18.694;2023-07-22T06:00:44;23.90;99.90
25825;DHT22;13658;44.534;18.694;2023-07-22T06:03:10;23.80;99.90
25825;DHT22;13658;44.534;18.694;2023-07-22T06:05:36;23.60;99.90
25825;DHT22;13658;44.534;18.694;2023-07-22T06:11:29;23.40;99.90
25825;DHT22;13658;44.534;18.694;2023-07-22T06:13:56;23.20;99.90
25825;DHT22;13658;44.534;18.694;2023-07-22T06:16:22;23.20;99.90
25825;DHT22;13658;44.534;18.694;2023-07-22T06:18:48;23.20;99.90
25825;DHT22;13658;44.534;18.694;2023-07-22T06:21:14;23.20;99.90
25825;DHT22;13658;44.534;18.694;2023-07-22T06:23:40;23.20;99.90
25825;DHT22;13658;44.534;18.694;2023-07-22T06:26:06;23.00;99.90
25825;DHT22;13658;44.534;18.694;2023-07-22T06:28:32;23.00;99.90
25825;DHT22;13658;44.534;18.694;2023-07-22T06:34:44;23.20;99.90
25825;DHT22;13658;44.534;18.694;2023-07-22T06:37:10;23.60;99.90
25825;DHT22;13658;44.534;18.694;2023-07-22T06:39:36;24.10;99.90
25825;DHT22;13658;44.534;18.694;2023-07-22T06:42:01;24.70;99.90
25825;DHT22;13658;44.534;18.694;2023-07-22T06:44:28;25.20;99.90
25825;DHT22;13658;44.534;18.694;2023-07-22T06:46:54;25.90;99.90
25825;DHT22;13658;44.534;18.694;2023-07-22T06:49:20;26.40;99.90
25825;DHT22;13658;44.534;18.694;2023-07-22T06:51:46;26.70;99.90
25825;DHT22;13658;44.534;18.694;2023-07-22T06:54:13;27.10;99.90
25825;DHT22;13658;44.534;18.694;2023-07-22T06:56:39;27.40;99.90
25825;DHT22;13658;44.534;18.694;2023-07-22T06:59:05;28.00;99.90
25825;DHT22;13658;44.534;18.694;2023-07-22T07:01:31;28.30;99.90
25825;DHT22;13658;44.534;18.694;2023-07-22T07:03:56;28.50;99.90
25825;DHT22;13658;44.534;18.694;2023-07-22T07:06:22;29.00;99.90
25825;DHT22;13658;44.534;18.694;2023-07-22T07:08:48;29.20;99.90
25825;DHT22;13658;44.534;18.694;2023-07-22T07:11:14;29.50;99.90
25825;DHT22;13658;44.534;18.694;2023-07-22T07:13:40;30.00;99.90
25825;DHT22;13658;44.534;18.694;2023-07-22T07:16:29;30.20;99.90
25825;DHT22;13658;44.534;18.694;2023-07-22T07:18:57;30.40;99.90
25825;DHT22;13658;44.534;18.694;2023-07-22T07:21:23;30.70;99.90
25825;DHT22;13658;44.534;18.694;2023-07-22T07:23:51;30.70;99.90
25825;DHT22;13658;44.534;18.694;2023-07-22T07:26:17;30.90;99.90
25825;DHT22;13658;44.534;18.694;2023-07-22T07:28:44;31.30;99.90
25825;DHT22;13658;44.534;18.694;2023-07-22T07:31:10;31.80;99.90
25825;DHT22;13658;44.534;18.694;2023-07-22T07:33:36;31.60;99.90
25825;DHT22;13658;44.534;18.694;2023-07-22T07:36:02;31.80;99.90
25825;DHT22;13658;44.534;18.694;2023-07-22T07:38:29;32.10;99.90
25825;DHT22;13658;44.534;18.694;2023-07-22T07:41:00;32.20;99.90
25825;DHT22;13658;44.534;18.694;2023-07-22T07:43:26;32.60;99.90
25825;DHT22;13658;44.534;18.694;2023-07-22T07:46:21;32.50;99.90
25825;DHT22;13658;44.534;18.694;2023-07-22T07:48:52;33.00;99.90
25825;DHT22;13658;44.534;18.694;2023-07-22T07:51:20;33.00;99.90
25825;DHT22;13658;44.534;18.694;2023-07-22T07:53:47;33.20;99.90
25825;DHT22;13658;44.534;18.694;2023-07-22T07:56:14;33.60;99.90
25825;DHT22;13658;44.534;18.694;2023-07-22T07:58:41;33.80;99.90
25825;DHT22;13658;44.534;18.694;2023-07-22T08:01:07;34.00;99.90
25825;DHT22;13658;44.534;18.694;2023-07-22T08:03:34;34.50;99.90
25825;DHT22;13658;44.534;18.694;2023-07-22T08:06:01;34.50;99.90
25825;DHT22;13658;44.534;18.694;2023-07-22T08:08:27;33.40;99.90
25825;DHT22;13658;44.534;18.694;2023-07-22T08:11:04;33.90;99.90
25825;DHT22;13658;44.534;18.694;2023-07-22T08:13:30;34.30;99.90
25825;DHT22;13658;44.534;18.694;2023-07-22T08:16:01;34.60;99.90
25825;DHT22;13658;44.534;18.694;2023-07-22T08:18:31;34.00;99.90
25825;DHT22;13658;44.534;18.694;2023-07-22T08:20:58;33.30;99.90
25825;DHT22;13658;44.534;18.694;2023-07-22T08:23:24;32.60;99.90
25825;DHT22;13658;44.534;18.694;2023-07-22T08:25:50;32.10;99.90
25825;DHT22;13658;44.534;18.694;2023-07-22T08:28:16;32.00;99.90
25825;DHT22;13658;44.534;18.694;2023-07-22T08:30:49;32.70;99.90
25825;DHT22;13658;44.534;18.694;2023-07-22T08:33:16;33.60;99.90
25825;DHT22;13658;44.534;18.694;2023-07-22T08:35:42;34.30;99.90
25825;DHT22;13658;44.534;18.694;2023-07-22T08:38:08;34.40;99.90
25825;DHT22;13658;44.534;18.694;2023-07-22T08:40:40;34.60;99.90
25825;DHT22;13658;44.534;18.694;2023-07-22T08:43:10;35.10;99.90
25825;DHT22;13658;44.534;18.694;2023-07-22T08:45:38;35.40;99.90
25825;DHT22;13658;44.534;18.694;2023-07-22T08:48:08;35.60;99.90
25825;DHT22;13658;44.534;18.694;2023-07-22T08:50:59;36.20;99.90
25825;DHT22;13658;44.534;18.694;2023-07-22T08:53:29;35.80;99.90
25825;DHT22;13658;44.534;18.694;2023-07-22T08:55:56;34.70;99.90
25825;DHT22;13658;44.534;18.694;2023-07-22T08:58:23;32.90;99.90
25825;DHT22;13658;44.534;18.694;2023-07-22T09:00:51;32.10;99.90
25825;DHT22;13658;44.534;18.694;2023-07-22T09:03:18;31.40;99.90
25825;DHT22;13658;44.534;18.694;2023-07-22T09:05:45;30.60;99.90
25825;DHT22;13658;44.534;18.694;2023-07-22T09:08:12;30.60;99.90
25825;DHT22;13658;44.534;18.694;2023-07-22T09:10:39;30.20;99.90
25825;DHT22;13658;44.534;18.694;2023-07-22T09:13:05;30.50;99.90
25825;DHT22;13658;44.534;18.694;2023-07-22T09:15:35;31.60;99.90
25825;DHT22;13658;44.534;18.694;2023-07-22T09:18:03;32.50;99.90
25825;DHT22;13658;44.534;18.694;2023-07-22T09:20:30;32.20;99.90
25825;DHT22;13658;44.534;18.694;2023-07-22T09:22:56;32.60;99.90
25825;DHT22;13658;44.534;18.694;2023-07-22T09:25:24;33.60;99.90
25825;DHT22;13658;44.534;18.694;2023-07-22T09:27:52;34.50;99.90
25825;DHT22;13658;44.534;18.694;2023-07-22T09:30:23;35.10;99.90
25825;DHT22;13658;44.534;18.694;2023-07-22T09:32:50;35.20;99.90
25825;DHT22;13658;44.534;18.694;2023-07-22T09:35:17;35.10;99.90
25825;DHT22;13658;44.534;18.694;2023-07-22T09:37:43;34.90;99.90
25825;DHT22;13658;44.534;18.694;2023-07-22T09:40:22;33.80;99.90
25825;DHT22;13658;44.534;18.694;2023-07-22T09:42:50;33.40;99.90
25825;DHT22;13658;44.534;18.694;2023-07-22T09:45:17;33.10;99.90
25825;DHT22;13658;44.534;18.694;2023-07-22T09:47:48;32.80;99.90
25825;DHT22;13658;44.534;18.694;2023-07-22T09:50:17;32.30;99.90
25825;DHT22;13658;44.534;18.694;2023-07-22T09:52:48;31.70;99.90
25825;DHT22;13658;44.534;18.694;2023-07-22T09:55:16;31.30;99.90
25825;DHT22;13658;44.534;18.694;2023-07-22T09:57:45;31.50;99.90
25825;DHT22;13658;44.534;18.694;2023-07-22T10:00:12;31.70;99.90
25825;DHT22;13658;44.534;18.694;2023-07-22T10:02:41;32.70;99.90
25825;DHT22;13658;44.534;18.694;2023-07-22T10:05:13;33.10;99.90
25825;DHT22;13658;44.534;18.694;2023-07-22T10:10:12;34.00;99.90
25825;DHT22;13658;44.534;18.694;2023-07-22T10:12:42;34.50;99.90
25825;DHT22;13658;44.534;18.694;2023-07-22T10:15:14;34.50;99.90
25825;DHT22;13658;44.534;18.694;2023-07-22T10:17:42;35.10;99.90
25825;DHT22;13658;44.534;18.694;2023-07-22T10:20:09;35.20;99.90
25825;DHT22;13658;44.534;18.694;2023-07-22T10:22:43;34.60;99.90
25825;DHT22;13658;44.534;18.694;2023-07-22T10:25:11;33.80;99.90
25825;DHT22;13658;44.534;18.694;2023-07-22T10:27:39;33.00;99.90
25825;DHT22;13658;44.534;18.694;2023-07-22T10:30:09;32.40;99.90
25825;DHT22;13658;44.534;18.694;2023-07-22T10:32:45;32.20;99.90
25825;DHT22;13658;44.534;18.694;2023-07-22T10:35:16;31.60;99.90
25825;DHT22;13658;44.534;18.694;2023-07-22T10:37:45;31.20;99.90
25825;DHT22;13658;44.534;18.694;2023-07-22T10:40:27;30.90;99.90
25825;DHT22;13658;44.534;18.694;2023-07-22T10:43:04;30.60;99.90
25825;DHT22;13658;44.534;18.694;2023-07-22T10:45:40;30.30;99.90
25825;DHT22;13658;44.534;18.694;2023-07-22T10:48:11;30.20;99.90
25825;DHT22;13658;44.534;18.694;2023-07-22T10:50:43;30.00;99.90
25825;DHT22;13658;44.534;18.694;2023-07-22T11:06:31;30.80;99.90
25825;DHT22;13658;44.534;18.694;2023-07-22T11:08:57;30.80;99.90
25825;DHT22;13658;44.534;18.694;2023-07-22T11:11:40;31.10;99.90
25825;DHT22;13658;44.534;18.694;2023-07-22T11:14:33;31.10;99.90
25825;DHT22;13658;44.534;18.694;2023-07-22T11:17:01;31.20;99.90
25825;DHT22;13658;44.534;18.694;2023-07-22T11:19:30;31.10;99.90
25825;DHT22;13658;44.534;18.694;2023-07-22T11:21:56;30.90;99.90
25825;DHT22;13658;44.534;18.694;2023-07-22T11:24:24;31.30;99.90
25825;DHT22;13658;44.534;18.694;2023-07-22T11:26:51;31.00;99.90
25825;DHT22;13658;44.534;18.694;2023-07-22T11:29:17;30.70;99.90
25825;DHT22;13658;44.534;18.694;2023-07-22T11:31:45;30.60;99.90
25825;DHT22;13658;44.534;18.694;2023-07-22T11:34:13;30.60;99.90
25825;DHT22;13658;44.534;18.694;2023-07-22T11:36:39;30.70;99.90
25825;DHT22;13658;44.534;18.694;2023-07-22T11:39:10;30.40;99.90
25825;DHT22;13658;44.534;18.694;2023-07-22T11:41:38;30.40;99.90
25825;DHT22;13658;44.534;18.694;2023-07-22T11:44:05;30.10;99.90
25825;DHT22;13658;44.534;18.694;2023-07-22T11:46:35;30.30;99.90
25825;DHT22;13658;44.534;18.694;2023-07-22T11:49:02;30.50;99.90
25825;DHT22;13658;44.534;18.694;2023-07-22T11:51:29;30.60;99.90
25825;DHT22;13658;44.534;18.694;2023-07-22T11:53:55;30.90;99.90
25825;DHT22;13658;44.534;18.694;2023-07-22T11:56:26;31.00;99.90
25825;DHT22;13658;44.534;18.694;2023-07-22T11:58:54;30.50;99.90
25825;DHT22;13658;44.534;18.694;2023-07-22T12:01:21;30.50;99.90
25825;DHT22;13658;44.534;18.694;2023-07-22T12:03:48;30.30;99.90
25825;DHT22;13658;44.534;18.694;2023-07-22T12:06:15;30.10;99.90
25825;DHT22;13658;44.534;18.694;2023-07-22T12:08:49;29.90;99.90
25825;DHT22;13658;44.534;18.694;2023-07-22T12:11:19;29.90;99.90
25825;DHT22;13658;44.534;18.694;2023-07-22T12:13:46;30.10;99.90
25825;DHT22;13658;44.534;18.694;2023-07-22T12:16:22;30.30;99.90
25825;DHT22;13658;44.534;18.694;2023-07-22T12:18:54;30.20;99.90
25825;DHT22;13658;44.534;18.694;2023-07-22T12:21:20;30.20;99.90
25825;DHT22;13658;44.534;18.694;2023-07-22T12:23:46;30.00;99.90
25825;DHT22;13658;44.534;18.694;2023-07-22T12:26:13;30.00;99.90
25825;DHT22;13658;44.534;18.694;2023-07-22T12:28:39;30.00;99.90
25825;DHT22;13658;44.534;18.694;2023-07-22T12:31:05;29.80;99.90
25825;DHT22;13658;44.534;18.694;2023-07-22T12:33:31;29.60;99.90
25825;DHT22;13658;44.534;18.694;2023-07-22T12:35:57;29.50;99.90
25825;DHT22;13658;44.534;18.694;2023-07-22T12:38:23;29.40;99.90
25825;DHT22;13658;44.534;18.694;2023-07-22T12:40:49;29.50;99.90
25825;DHT22;13658;44.534;18.694;2023-07-22T12:43:15;29.50;99.90
25825;DHT22;13658;44.534;18.694;2023-07-22T12:45:41;29.70;99.90
25825;DHT22;13658;44.534;18.694;2023-07-22T12:48:07;29.70;99.90
25825;DHT22;13658;44.534;18.694;2023-07-22T12:50:33;29.90;99.90
25825;DHT22;13658;44.534;18.694;2023-07-22T12:52:59;29.50;99.90
25825;DHT22;13658;44.534;18.694;2023-07-22T12:55:26;29.20;99.90
25825;DHT22;13658;44.534;18.694;2023-07-22T12:57:55;29.10;99.90
25825;DHT22;13658;44.534;18.694;2023-07-22T13:00:24;28.80;99.90
25825;DHT22;13658;44.534;18.694;2023-07-22T13:02:50;28.70;99.90
25825;DHT22;13658;44.534;18.694;2023-07-22T13:09:01;28.50;99.90
25825;DHT22;13658;44.534;18.694;2023-07-22T13:11:27;28.60;99.90
25825;DHT22;13658;44.534;18.694;2023-07-22T13:13:53;28.60;99.90
25825;DHT22;13658;44.534;18.694;2023-07-22T13:16:19;28.60;99.90
25825;DHT22;13658;44.534;18.694;2023-07-22T13:18:45;28.80;99.90
25825;DHT22;13658;44.534;18.694;2023-07-22T13:21:11;29.10;99.90
25825;DHT22;13658;44.534;18.694;2023-07-22T13:23:37;28.90;99.90
25825;DHT22;13658;44.534;18.694;2023-07-22T13:26:02;28.60;99.90
25825;DHT22;13658;44.534;18.694;2023-07-22T13:28:29;28.60;99.90
25825;DHT22;13658;44.534;18.694;2023-07-22T13:30:54;28.50;99.90
25825;DHT22;13658;44.534;18.694;2023-07-22T13:33:20;28.60;99.90
25825;DHT22;13658;44.534;18.694;2023-07-22T13:35:46;28.50;99.90
25825;DHT22;13658;44.534;18.694;2023-07-22T13:38:12;28.40;99.90
25825;DHT22;13658;44.534;18.694;2023-07-22T13:40:38;28.20;99.90
25825;DHT22;13658;44.534;18.694;2023-07-22T13:43:04;28.30;99.90
25825;DHT22;13658;44.534;18.694;2023-07-22T13:45:30;28.40;99.90
25825;DHT22;13658;44.534;18.694;2023-07-22T13:47:56;28.60;99.90
25825;DHT22;13658;44.534;18.694;2023-07-22T13:50:22;28.70;99.90
25825;DHT22;13658;44.534;18.694;2023-07-22T13:52:49;28.90;99.90
25825;DHT22;13658;44.534;18.694;2023-07-22T13:55:15;28.90;99.90
25825;DHT22;13658;44.534;18.694;2023-07-22T13:57:41;28.70;99.90
25825;DHT22;13658;44.534;18.694;2023-07-22T14:00:07;28.50;99.90
25825;DHT22;13658;44.534;18.694;2023-07-22T14:02:38;28.50;99.90
25825;DHT22;13658;44.534;18.694;2023-07-22T14:05:04;28.50;99.90
25825;DHT22;13658;44.534;18.694;2023-07-22T14:07:30;28.30;99.90
25825;DHT22;13658;44.534;18.694;2023-07-22T14:09:56;28.30;99.90
25825;DHT22;13658;44.534;18.694;2023-07-22T14:12:22;28.20;99.90
25825;DHT22;13658;44.534;18.694;2023-07-22T14:14:48;28.10;99.90
25825;DHT22;13658;44.534;18.694;2023-07-22T14:17:14;28.20;99.90
25825;DHT22;13658;44.534;18.694;2023-07-22T14:19:40;28.30;99.90
25825;DHT22;13658;44.534;18.694;2023-07-22T14:22:07;28.30;99.90
25825;DHT22;13658;44.534;18.694;2023-07-22T14:24:34;28.40;99.90
25825;DHT22;13658;44.534;18.694;2023-07-22T14:27:00;28.50;99.90
25825;DHT22;13658;44.534;18.694;2023-07-22T14:29:26;28.30;99.90
25825;DHT22;13658;44.534;18.694;2023-07-22T14:31:52;28.30;99.90
25825;DHT22;13658;44.534;18.694;2023-07-22T14:34:18;28.30;99.90
25825;DHT22;13658;44.534;18.694;2023-07-22T14:36:44;28.40;99.90
25825;DHT22;13658;44.534;18.694;2023-07-22T14:39:10;28.40;99.90
25825;DHT22;13658;44.534;18.694;2023-07-22T14:41:36;28.40;99.90
25825;DHT22;13658;44.534;18.694;2023-07-22T14:44:02;28.40;99.90
25825;DHT22;13658;44.534;18.694;2023-07-22T14:46:28;28.40;99.90
25825;DHT22;13658;44.534;18.694;2023-07-22T14:48:54;28.40;99.90
25825;DHT22;13658;44.534;18.694;2023-07-22T14:51:20;28.40;99.90
25825;DHT22;13658;44.534;18.694;2023-07-22T14:53:46;28.30;99.90
25825;DHT22;13658;44.534;18.694;2023-07-22T14:56:12;28.30;99.90
25825;DHT22;13658;44.534;18.694;2023-07-22T14:58:38;28.20;99.90
25825;DHT22;13658;44.534;18.694;2023-07-22T15:01:05;28.00;99.90
25825;DHT22;13658;44.534;18.694;2023-07-22T15:03:32;28.10;99.90
25825;DHT22;13658;44.534;18.694;2023-07-22T15:05:58;28.00;99.90
25825;DHT22;13658;44.534;18.694;2023-07-22T15:08:24;28.00;99.90
25825;DHT22;13658;44.534;18.694;2023-07-22T15:10:50;28.10;99.90
25825;DHT22;13658;44.534;18.694;2023-07-22T15:13:16;28.00;99.90
25825;DHT22;13658;44.534;18.694;2023-07-22T15:15:42;28.10;99.90
25825;DHT22;13658;44.534;18.694;2023-07-22T15:18:08;28.00;99.90
25825;DHT22;13658;44.534;18.694;2023-07-22T15:20:35;28.00;99.90
25825;DHT22;13658;44.534;18.694;2023-07-22T15:23:01;27.90;99.90
25825;DHT22;13658;44.534;18.694;2023-07-22T15:25:27;27.80;99.90
25825;DHT22;13658;44.534;18.694;2023-07-22T15:27:53;27.80;99.90
25825;DHT22;13658;44.534;18.694;2023-07-22T15:30:19;27.80;99.90
25825;DHT22;13658;44.534;18.694;2023-07-22T15:32:45;27.60;99.90
25825;DHT22;13658;44.534;18.694;2023-07-22T15:35:11;27.70;99.90
25825;DHT22;13658;44.534;18.694;2023-07-22T15:37:38;27.70;99.90
25825;DHT22;13658;44.534;18.694;2023-07-22T15:40:04;27.70;99.90
25825;DHT22;13658;44.534;18.694;2023-07-22T15:42:30;27.60;99.90
25825;DHT22;13658;44.534;18.694;2023-07-22T15:44:56;27.60;99.90
25825;DHT22;13658;44.534;18.694;2023-07-22T15:47:22;27.50;99.90
25825;DHT22;13658;44.534;18.694;2023-07-22T15:49:48;27.50;99.90